createdAt,value
2023-04-18T00:00:49.433Z,10.20
2023-04-18T00:04:58.196Z,10.10
2023-04-18T00:09:07.132Z,10.00
2023-04-18T00:13:17.405Z,10.00
2023-04-18T00:17:28.121Z,10.00
2023-04-18T00:21:37.290Z,10.00
2023-04-18T00:25:45.957Z,9.90
2023-04-18T00:29:54.594Z,9.90
2023-04-18T00:34:03.262Z,9.90
2023-04-18T00:38:11.995Z,9.80
2023-04-18T00:42:22.057Z,9.80
2023-04-18T00:46:30.859Z,9.70
2023-04-18T00:50:40.677Z,9.70
2023-04-18T00:54:49.280Z,9.60
2023-04-18T00:58:58.526Z,9.60
2023-04-18T01:03:08.607Z,9.60
2023-04-18T01:07:17.542Z,9.50
2023-04-18T01:11:26.259Z,9.50
2023-04-18T01:15:34.939Z,9.40
2023-04-18T01:19:44.508Z,9.30
2023-04-18T01:23:54.390Z,9.30
2023-04-18T01:28:04.644Z,9.40
2023-04-18T01:32:13.394Z,9.30
2023-04-18T01:36:22.088Z,9.20
2023-04-18T01:40:30.747Z,9.20
2023-04-18T01:44:39.348Z,9.10
2023-04-18T01:48:47.933Z,9.00
2023-04-18T01:52:56.538Z,9.00
2023-04-18T01:57:05.569Z,9.00
2023-04-18T02:01:14.383Z,9.00
2023-04-18T02:05:23.141Z,9.00
2023-04-18T02:09:31.867Z,8.90
2023-04-18T02:13:40.594Z,9.00
2023-04-18T02:17:50.583Z,8.90
2023-04-18T02:21:59.289Z,8.80
2023-04-18T02:26:07.897Z,8.80
2023-04-18T02:30:16.807Z,8.70
2023-04-18T02:34:25.489Z,8.60
2023-04-18T02:38:34.531Z,8.60
2023-04-18T02:42:43.148Z,8.60
2023-04-18T02:46:51.778Z,8.60
2023-04-18T02:51:28.102Z,8.50
2023-04-18T02:55:37.717Z,8.40
2023-04-18T02:59:46.398Z,8.50
2023-04-18T03:03:55.022Z,8.50
2023-04-18T03:08:03.702Z,8.50
2023-04-18T03:12:12.338Z,8.50
2023-04-18T03:16:23.710Z,8.30
2023-04-18T03:20:32.458Z,8.30
2023-04-18T03:24:41.395Z,8.30
2023-04-18T03:28:50.030Z,8.30
2023-04-18T03:32:59.646Z,8.30
2023-04-18T03:37:09.688Z,8.30
2023-04-18T03:41:18.491Z,8.30
2023-04-18T03:45:27.290Z,8.30
2023-04-18T03:49:35.923Z,8.30
2023-04-18T03:53:44.517Z,8.20
2023-04-18T03:57:53.174Z,8.20
2023-04-18T04:02:01.959Z,8.10
2023-04-18T04:06:10.951Z,8.00
2023-04-18T04:10:19.696Z,8.00
2023-04-18T04:14:28.410Z,8.00
2023-04-18T04:18:37.260Z,8.00
2023-04-18T04:22:45.888Z,8.00
2023-04-18T04:26:54.610Z,8.00
2023-04-18T04:31:05.443Z,7.90
2023-04-18T04:35:14.313Z,7.80
2023-04-18T04:39:22.930Z,7.90
2023-04-18T04:43:32.223Z,7.90
2023-04-18T04:47:41.013Z,7.90
2023-04-18T04:51:49.844Z,7.90
2023-04-18T04:56:01.785Z,7.90
2023-04-18T05:00:11.509Z,8.00
2023-04-18T05:04:20.436Z,8.10
2023-04-18T05:08:29.388Z,8.10
2023-04-18T05:12:38.017Z,8.20
2023-04-18T05:16:46.693Z,8.20
2023-04-18T05:20:55.925Z,8.30
2023-04-18T05:25:04.884Z,8.30
2023-04-18T05:29:13.562Z,8.30
2023-04-18T05:33:22.187Z,8.30
2023-04-18T05:37:31.035Z,8.30
2023-04-18T05:41:39.651Z,8.40
2023-04-18T05:45:48.819Z,8.50
2023-04-18T05:49:57.637Z,8.50
2023-04-18T05:54:06.182Z,8.60
2023-04-18T05:58:14.893Z,8.70
2023-04-18T06:02:23.644Z,8.70
2023-04-18T06:06:33.001Z,8.90
2023-04-18T06:10:41.686Z,8.90
2023-04-18T06:14:51.231Z,8.90
2023-04-18T06:19:01.259Z,8.90
2023-04-18T06:23:10.312Z,8.90
2023-04-18T06:27:30.677Z,9.00
2023-04-18T06:31:29.272Z,9.00
2023-04-18T06:35:38.275Z,9.00
2023-04-18T06:39:46.856Z,9.10
2023-04-18T06:44:03.396Z,9.10
2023-04-18T06:48:07.712Z,9.20
2023-04-18T06:52:16.479Z,9.20
2023-04-18T06:56:25.409Z,9.20
2023-04-18T07:00:34.037Z,9.30
2023-04-18T07:04:42.776Z,9.30
2023-04-18T07:08:53.966Z,9.30
2023-04-18T07:13:01.933Z,9.40
2023-04-18T07:17:20.777Z,9.50
2023-04-18T07:21:20.934Z,9.60
2023-04-18T07:25:29.551Z,9.60
2023-04-18T07:29:38.181Z,9.70
2023-04-18T07:33:46.914Z,9.80
2023-04-18T07:37:56.101Z,9.80
2023-04-18T07:42:05.647Z,9.90
2023-04-18T07:46:14.533Z,9.90
2023-04-18T07:54:44.379Z,10.00
2023-04-18T07:58:53.532Z,10.10
2023-04-18T08:03:02.647Z,10.20
2023-04-18T08:07:11.470Z,10.10
2023-04-18T08:11:20.080Z,10.10
2023-04-18T08:15:29.218Z,10.20
2023-04-18T08:19:37.850Z,10.20
2023-04-18T08:23:47.447Z,10.20
2023-04-18T08:27:56.027Z,10.20
2023-04-18T08:32:08.914Z,10.10
2023-04-18T08:36:17.659Z,10.10
2023-04-18T08:40:26.524Z,10.10
2023-04-18T08:44:35.833Z,10.10
2023-04-18T08:48:44.548Z,10.10
2023-04-18T08:52:55.952Z,10.10
2023-04-18T08:57:08.873Z,10.10
2023-04-18T09:01:17.723Z,10.20
2023-04-18T09:05:27.713Z,10.40
2023-04-18T09:09:47.812Z,10.40
2023-04-18T09:13:58.805Z,10.50
2023-04-18T09:18:10.900Z,10.50
2023-04-18T09:22:19.636Z,10.50
2023-04-18T09:31:03.358Z,10.50
2023-04-18T09:35:12.049Z,10.60
2023-04-18T09:39:28.545Z,10.60
2023-04-18T09:43:37.295Z,10.60
2023-04-18T09:47:46.017Z,10.60
2023-04-18T09:51:56.705Z,10.50
2023-04-18T09:56:07.168Z,10.50
2023-04-18T10:00:27.324Z,10.40
2023-04-18T10:04:37.097Z,10.40
2023-04-18T10:08:48.718Z,10.40
2023-04-18T10:13:00.380Z,10.40
2023-04-18T10:17:09.297Z,10.40
2023-04-18T10:21:18.025Z,10.50
2023-04-18T10:25:41.517Z,10.50
2023-04-18T10:29:56.476Z,10.50
2023-04-18T10:34:08.039Z,10.60
2023-04-18T10:38:20.971Z,10.60
2023-04-18T10:42:49.703Z,10.80
2023-04-18T10:47:02.018Z,11.00
2023-04-18T10:51:19.045Z,11.10
2023-04-18T10:59:39.434Z,11.20
2023-04-18T11:03:48.248Z,11.30
2023-04-18T11:07:57.205Z,11.30
2023-04-18T11:12:10.955Z,11.40
2023-04-18T11:16:32.211Z,11.40
2023-04-18T11:20:43.397Z,11.50
2023-04-18T11:24:52.956Z,11.60
2023-04-18T11:29:05.146Z,11.60
2023-04-18T11:33:15.329Z,11.70
2023-04-18T11:37:24.049Z,11.70
2023-04-18T11:41:32.658Z,11.90
2023-04-18T11:45:44.683Z,12.00
2023-04-18T11:50:01.414Z,12.20
2023-04-18T11:54:29.210Z,12.30
2023-04-18T11:58:37.993Z,12.30
2023-04-18T12:02:51.627Z,12.30
2023-04-18T12:07:00.883Z,12.30
2023-04-18T12:11:09.513Z,12.20
2023-04-18T12:15:19.061Z,12.20
2023-04-18T12:19:28.940Z,12.30
2023-04-18T12:23:42.442Z,12.40
2023-04-18T12:27:58.024Z,12.30
2023-04-18T12:32:06.988Z,12.30
2023-04-18T12:36:16.236Z,12.30
2023-04-18T12:40:26.432Z,12.40
2023-04-18T12:44:36.147Z,12.60
2023-04-18T12:48:44.776Z,12.80
2023-04-18T12:52:56.136Z,12.90
2023-04-18T12:57:04.900Z,12.80
2023-04-18T13:01:14.294Z,12.80
2023-04-18T13:05:24.442Z,13.10
2023-04-18T13:09:33.357Z,13.20
2023-04-18T13:13:41.984Z,13.20
2023-04-18T13:17:50.987Z,13.30
2023-04-18T13:22:01.096Z,13.50
2023-04-18T13:26:09.783Z,13.70
2023-04-18T13:30:21.488Z,14.00
2023-04-18T13:34:30.112Z,14.10
2023-04-18T13:38:38.771Z,14.20
2023-04-18T13:42:47.552Z,14.40
2023-04-18T13:46:56.743Z,14.50
2023-04-18T13:51:05.989Z,14.50
2023-04-18T13:55:14.618Z,14.60
2023-04-18T13:59:23.242Z,14.50
2023-04-18T14:03:32.692Z,14.40
2023-04-18T14:07:42.142Z,14.50
2023-04-18T14:11:51.344Z,14.60
2023-04-18T14:16:00.406Z,14.80
2023-04-18T14:20:09.841Z,14.80
2023-04-18T14:24:18.706Z,14.70
2023-04-18T14:28:27.894Z,14.80
2023-04-18T14:32:36.706Z,14.70
2023-04-18T14:36:45.429Z,14.80
2023-04-18T14:40:54.141Z,14.80
2023-04-18T14:45:04.405Z,14.60
2023-04-18T14:49:13.293Z,14.40
2023-04-18T14:53:22.163Z,14.50
2023-04-18T14:57:30.955Z,14.60
2023-04-18T15:01:41.328Z,14.40
2023-04-18T15:05:50.003Z,14.50
2023-04-18T15:09:58.634Z,14.50
2023-04-18T15:14:07.298Z,14.50
2023-04-18T15:18:16.021Z,14.50
2023-04-18T15:22:24.827Z,14.40
2023-04-18T15:26:33.770Z,14.60
2023-04-18T15:30:42.421Z,14.60
2023-04-18T15:34:51.434Z,14.70
2023-04-18T15:39:00.188Z,14.90
2023-04-18T15:43:08.791Z,14.90
2023-04-18T15:47:17.445Z,14.80
2023-04-18T15:51:30.257Z,14.70
2023-04-18T15:55:39.081Z,14.60
2023-04-18T15:59:47.814Z,14.70
2023-04-18T16:03:56.609Z,14.60
2023-04-18T16:08:05.591Z,14.50
2023-04-18T16:12:14.312Z,14.40
2023-04-18T16:16:22.986Z,14.40
2023-04-18T16:20:33.407Z,14.30
2023-04-18T16:24:42.311Z,14.30
2023-04-18T16:28:51.176Z,14.20
2023-04-18T16:33:00.072Z,14.20
2023-04-18T16:37:10.666Z,14.30
2023-04-18T16:41:19.324Z,14.40
2023-04-18T16:45:34.088Z,14.40
2023-04-18T16:49:45.877Z,14.30
2023-04-18T16:53:55.797Z,14.30
2023-04-18T16:58:05.787Z,14.30
2023-04-18T17:02:19.636Z,14.30
2023-04-18T17:06:32.784Z,14.20
2023-04-18T17:10:41.458Z,14.10
2023-04-18T17:14:50.264Z,14.00
2023-04-18T17:18:58.897Z,13.90
2023-04-18T17:23:11.208Z,13.80
2023-04-18T17:27:22.841Z,13.80
2023-04-18T17:31:33.520Z,13.70
2023-04-18T17:35:44.680Z,13.70
2023-04-18T17:39:54.609Z,13.60
2023-04-18T17:44:03.266Z,13.50
2023-04-18T17:48:11.885Z,13.50
2023-04-18T17:52:21.742Z,13.40
2023-04-18T17:56:31.500Z,13.30
2023-04-18T18:00:40.149Z,13.20
2023-04-18T18:04:51.564Z,13.10
2023-04-18T18:09:00.138Z,13.10
2023-04-18T18:13:09.123Z,12.90
2023-04-18T18:17:17.836Z,12.90
2023-04-18T18:21:27.105Z,12.80
2023-04-18T18:25:37.623Z,12.70
2023-04-18T18:29:47.674Z,12.70
2023-04-18T18:33:56.302Z,12.60
2023-04-18T18:38:04.909Z,12.60
2023-04-18T18:42:19.628Z,12.50
2023-04-18T18:46:28.415Z,12.40
2023-04-18T18:50:37.085Z,12.40
2023-04-18T18:54:45.817Z,12.30
2023-04-18T18:58:58.344Z,12.20
2023-04-18T19:03:08.436Z,12.20
2023-04-18T19:07:17.343Z,12.10
2023-04-18T19:11:26.799Z,12.10
2023-04-18T19:15:35.633Z,12.00
2023-04-18T19:19:44.781Z,12.00
2023-04-18T19:23:53.491Z,11.90
2023-04-18T19:28:02.223Z,11.80
2023-04-18T19:32:10.869Z,11.80
2023-04-18T19:36:19.593Z,11.70
2023-04-18T19:40:28.830Z,11.70
2023-04-18T19:44:37.553Z,11.70
2023-04-18T19:48:46.120Z,11.60
2023-04-18T19:52:54.815Z,11.60
2023-04-18T19:57:04.785Z,11.60
2023-04-18T20:01:15.743Z,11.60
2023-04-18T20:05:24.825Z,11.50
2023-04-18T20:09:35.152Z,11.40
2023-04-18T20:13:43.738Z,11.40
2023-04-18T20:17:52.514Z,11.30
2023-04-18T20:22:01.904Z,11.20
2023-04-18T20:26:10.600Z,11.30
2023-04-18T20:30:19.589Z,11.20
2023-04-18T20:34:28.239Z,11.20
2023-04-18T20:38:57.064Z,11.20
2023-04-18T20:43:08.140Z,11.20
2023-04-18T20:47:18.003Z,11.10
2023-04-18T20:51:27.930Z,11.10
2023-04-18T20:55:36.806Z,11.00
2023-04-18T20:59:45.753Z,11.00
2023-04-18T21:03:54.575Z,11.00
2023-04-18T21:08:03.306Z,11.00
2023-04-18T21:12:11.938Z,10.90
2023-04-18T21:16:22.444Z,10.90
2023-04-18T21:20:31.105Z,11.00
2023-04-18T21:24:40.466Z,11.00
2023-04-18T21:29:04.921Z,11.00
2023-04-18T21:33:14.232Z,11.00
2023-04-18T21:37:22.956Z,11.00
2023-04-18T21:41:31.584Z,11.10
2023-04-18T21:45:40.272Z,11.10
2023-04-18T21:49:49.908Z,11.10
2023-04-18T21:53:59.094Z,11.10
2023-04-18T21:58:07.705Z,11.10
2023-04-18T22:02:16.491Z,11.10
2023-04-18T22:06:26.300Z,11.20
2023-04-18T22:10:38.212Z,11.20
2023-04-18T22:14:48.554Z,11.20
2023-04-18T22:18:57.772Z,11.20
2023-04-18T22:23:07.191Z,11.20
2023-04-18T22:27:15.921Z,11.20
2023-04-18T22:31:24.593Z,11.20
2023-04-18T22:35:33.384Z,11.30
2023-04-18T22:39:42.113Z,11.20
2023-04-18T22:43:50.746Z,11.20
2023-04-18T22:47:59.523Z,11.30
2023-04-18T22:56:45.616Z,11.30
2023-04-18T23:00:54.252Z,11.30
2023-04-18T23:05:03.082Z,11.30
2023-04-18T23:09:11.711Z,11.30
2023-04-18T23:13:20.434Z,11.30
2023-04-18T23:17:29.308Z,11.30
2023-04-18T23:21:38.019Z,11.30
2023-04-18T23:25:46.738Z,11.30
2023-04-18T23:29:55.573Z,11.30
2023-04-18T23:34:04.306Z,11.30
2023-04-18T23:38:12.949Z,11.30
2023-04-18T23:42:21.551Z,11.30
2023-04-18T23:46:31.077Z,11.30
2023-04-18T23:50:45.805Z,11.30
2023-04-18T23:54:54.618Z,11.30
2023-04-18T23:59:03.255Z,11.30
